Time;durP1;ratioP1;P1;durP2;ratioP2;P2;SDS_P1;SDS_P2;PMS_P1;PMS_P2;Temp;Humidity;BMP_temperature;BMP_pressure;BME280_temperature;BME280_humidity;BME280_pressure;Samples;Min_cycle;Max_cycle;Signal;HPM_P1;HPM_P2
2023/05/31 00:02:20;;;;;;;10.23;5.28;;;9.30;99.90;;;;;;5076704;28;20067;-37
2023/05/31 00:04:45;;;;;;;12.07;5.85;;;9.30;99.90;;;;;;5075762;28;20125;-40
2023/05/31 00:07:11;;;;;;;10.50;5.70;;;9.30;99.90;;;;;;5076931;28;20447;-36
2023/05/31 00:09:37;;;;;;;8.23;5.47;;;9.30;99.90;;;;;;5075087;28;20066;-39
2023/05/31 00:12:03;;;;;;;7.60;5.72;;;9.20;99.90;;;;;;5074013;28;20555;-37
2023/05/31 00:14:29;;;;;;;10.30;7.43;;;9.20;99.90;;;;;;5075165;28;20048;-40
2023/05/31 00:16:54;;;;;;;9.90;6.38;;;9.20;99.90;;;;;;5076406;28;20044;-37
2023/05/31 00:19:20;;;;;;;10.30;5.45;;;9.20;99.90;;;;;;5076013;28;20044;-37
2023/05/31 00:21:46;;;;;;;10.15;6.35;;;9.10;99.90;;;;;;5075941;28;20197;-42
2023/05/31 00:24:12;;;;;;;11.35;6.15;;;9.10;99.90;;;;;;5075640;28;20044;-38
2023/05/31 00:26:38;;;;;;;9.93;5.80;;;9.10;99.90;;;;;;5074630;28;20488;-41
2023/05/31 00:29:04;;;;;;;10.02;5.45;;;9.10;99.90;;;;;;5075537;28;20043;-38
2023/05/31 00:31:30;;;;;;;9.68;6.13;;;9.10;99.90;;;;;;5074450;28;20048;-36
2023/05/31 00:33:56;;;;;;;11.68;5.90;;;9.10;99.90;;;;;;5075429;28;20527;-37
2023/05/31 00:36:22;;;;;;;7.78;5.60;;;9.10;99.90;;;;;;5071333;28;20044;-36
2023/05/31 00:38:48;;;;;;;10.52;5.70;;;9.10;99.90;;;;;;5055396;28;20123;-40
2023/05/31 00:41:14;;;;;;;10.00;5.45;;;9.00;99.90;;;;;;5066220;28;20507;-39
2023/05/31 00:43:40;;;;;;;10.77;5.80;;;8.90;99.90;;;;;;5066739;28;20044;-40
2023/05/31 00:46:11;;;;;;;9.82;5.25;;;8.90;99.90;;;;;;5069613;28;20052;-35
2023/05/31 00:48:38;;;;;;;7.57;5.22;;;8.90;99.90;;;;;;5075586;28;20507;-38
2023/05/31 00:51:05;;;;;;;7.55;5.43;;;8.90;99.90;;;;;;5068247;28;20040;-37
2023/05/31 00:53:31;;;;;;;9.68;5.35;;;8.90;99.90;;;;;;5073459;28;20137;-38
2023/05/31 00:55:59;;;;;;;6.38;4.85;;;8.90;99.90;;;;;;5074687;28;20050;-40
2023/05/31 00:58:27;;;;;;;8.25;5.50;;;8.80;99.90;;;;;;5075614;28;20093;-38
2023/05/31 01:00:54;;;;;;;9.15;5.47;;;8.80;99.90;;;;;;5075748;28;20082;-37
2023/05/31 01:03:20;;;;;;;8.82;5.43;;;8.80;99.90;;;;;;5073291;28;20052;-37
2023/05/31 01:05:46;;;;;;;9.70;5.22;;;8.80;99.90;;;;;;5072937;28;20537;-40
2023/05/31 01:08:14;;;;;;;7.70;4.97;;;8.70;99.90;;;;;;5074354;28;20148;-37
2023/05/31 01:10:40;;;;;;;8.25;5.50;;;8.70;99.90;;;;;;5075384;28;20512;-36
2023/05/31 01:13:15;;;;;;;8.30;5.20;;;8.70;99.90;;;;;;5073894;28;20052;-40
2023/05/31 01:15:49;;;;;;;8.18;5.57;;;8.70;99.90;;;;;;5073905;28;20134;-39
2023/05/31 01:18:25;;;;;;;7.60;5.20;;;8.70;99.90;;;;;;5075026;28;20113;-37
2023/05/31 01:20:53;;;;;;;10.23;5.63;;;8.70;99.90;;;;;;5073698;28;20407;-36
2023/05/31 01:23:37;;;;;;;7.65;5.93;;;8.70;99.90;;;;;;5073531;28;20648;-35
2023/05/31 01:26:19;;;;;;;12.38;6.47;;;8.60;99.90;;;;;;5060348;28;20498;-40
2023/05/31 01:28:50;;;;;;;10.85;6.40;;;8.60;99.90;;;;;;5073518;28;20066;-40
2023/05/31 01:31:20;;;;;;;8.57;5.60;;;8.60;99.90;;;;;;5073857;28;20369;-38
2023/05/31 01:33:47;;;;;;;9.30;6.18;;;8.60;99.90;;;;;;5074495;28;20480;-39
2023/05/31 01:36:12;;;;;;;4.20;3.28;;;8.50;99.90;;;;;;5070178;28;20047;-36
2023/05/31 01:38:38;;;;;;;6.57;3.22;;;8.50;99.90;;;;;;5056526;28;20089;-41
2023/05/31 01:41:06;;;;;;;4.93;4.13;;;8.50;99.90;;;;;;5063492;28;20047;-40
2023/05/31 01:43:34;;;;;;;6.50;4.10;;;8.50;99.90;;;;;;5065081;28;20051;-36
2023/05/31 01:46:01;;;;;;;6.68;3.72;;;8.40;99.90;;;;;;5095553;27;20048;-37
2023/05/31 01:48:28;;;;;;;6.70;3.78;;;8.40;99.90;;;;;;5071719;28;20123;-37
2023/05/31 01:50:57;;;;;;;5.30;4.22;;;8.40;99.90;;;;;;5067160;28;20521;-40
2023/05/31 01:53:23;;;;;;;6.93;4.30;;;8.30;99.90;;;;;;5073509;28;20438;-37
2023/05/31 01:55:49;;;;;;;6.40;4.80;;;8.30;99.90;;;;;;5073626;28;20081;-38
2023/05/31 01:58:16;;;;;;;10.25;5.38;;;8.30;99.90;;;;;;5074212;28;20563;-40
2023/05/31 02:00:42;;;;;;;6.32;4.90;;;8.30;99.90;;;;;;5069855;28;20407;-39
2023/05/31 02:03:08;;;;;;;8.35;5.40;;;8.30;99.90;;;;;;5071060;28;20056;-40
2023/05/31 02:05:33;;;;;;;7.00;5.60;;;8.30;99.90;;;;;;5070930;28;20050;-39
2023/05/31 02:07:59;;;;;;;9.30;6.35;;;8.30;99.90;;;;;;5071873;28;20043;-36
2023/05/31 02:10:25;;;;;;;10.45;6.35;;;8.30;99.90;;;;;;5074208;28;20081;-38
2023/05/31 02:12:53;;;;;;;9.52;6.63;;;8.30;99.90;;;;;;5073536;28;20451;-37
2023/05/31 02:15:19;;;;;;;12.75;7.15;;;8.30;99.90;;;;;;5073343;28;20078;-37
2023/05/31 02:17:46;;;;;;;11.45;6.13;;;8.30;99.90;;;;;;5074505;28;20142;-36
2023/05/31 02:20:15;;;;;;;8.15;5.97;;;8.30;99.90;;;;;;5074482;28;20151;-37
2023/05/31 02:22:45;;;;;;;10.48;6.68;;;8.30;99.90;;;;;;5073275;28;20083;-39
2023/05/31 02:25:15;;;;;;;11.52;6.00;;;8.30;99.90;;;;;;5073060;28;20521;-41
2023/05/31 02:27:41;;;;;;;10.73;6.45;;;8.20;99.90;;;;;;5072573;28;20040;-41
2023/05/31 02:30:08;;;;;;;9.27;6.15;;;8.20;99.90;;;;;;5074111;28;20055;-37
2023/05/31 02:32:35;;;;;;;12.02;5.90;;;8.20;99.90;;;;;;5073670;28;20054;-40
2023/05/31 02:35:09;;;;;;;9.95;5.97;;;8.20;99.90;;;;;;5072986;28;20060;-40
2023/05/31 02:37:36;;;;;;;10.75;6.13;;;8.20;99.90;;;;;;5062712;28;20044;-36
2023/05/31 02:40:09;;;;;;;11.50;6.35;;;8.20;99.90;;;;;;5055583;28;20081;-36
2023/05/31 02:42:36;;;;;;;10.07;4.90;;;8.20;99.90;;;;;;5069009;28;20135;-36
2023/05/31 02:45:02;;;;;;;8.25;6.00;;;8.20;99.90;;;;;;5061626;28;20492;-38
2023/05/31 02:47:27;;;;;;;10.82;7.00;;;8.10;99.90;;;;;;5073095;28;20048;-40
2023/05/31 02:49:53;;;;;;;10.88;6.30;;;8.10;99.90;;;;;;5066867;28;20465;-39
2023/05/31 02:52:19;;;;;;;11.07;6.60;;;8.10;99.90;;;;;;5072925;28;20076;-36
2023/05/31 02:54:44;;;;;;;10.00;5.88;;;8.10;99.90;;;;;;5070841;28;20040;-40
2023/05/31 02:57:10;;;;;;;15.00;6.93;;;8.20;99.90;;;;;;5073515;28;20492;-41
2023/05/31 02:59:36;;;;;;;14.20;8.05;;;8.20;99.90;;;;;;5073226;28;20051;-39
2023/05/31 03:02:01;;;;;;;11.02;7.18;;;8.20;99.90;;;;;;5071788;28;20157;-37
2023/05/31 03:04:27;;;;;;;12.63;7.53;;;8.20;99.90;;;;;;5072643;28;20398;-41
2023/05/31 03:06:53;;;;;;;10.90;6.55;;;8.20;99.90;;;;;;5051652;28;20453;-36
2023/05/31 03:09:18;;;;;;;13.95;8.07;;;8.20;99.90;;;;;;5068230;28;20137;-38
2023/05/31 03:11:44;;;;;;;14.70;7.65;;;8.10;99.90;;;;;;5073198;28;20571;-37
2023/05/31 03:14:11;;;;;;;13.73;6.78;;;8.20;99.90;;;;;;5072666;28;20699;-40
2023/05/31 03:16:36;;;;;;;16.02;7.55;;;8.10;99.90;;;;;;5073455;28;20052;-37
2023/05/31 03:19:02;;;;;;;10.38;7.00;;;8.10;99.90;;;;;;5073465;28;20040;-35
2023/05/31 03:21:28;;;;;;;11.07;6.70;;;8.10;99.90;;;;;;5071624;28;20214;-39
2023/05/31 03:23:53;;;;;;;13.07;6.90;;;8.10;99.90;;;;;;5073094;28;20091;-37
2023/05/31 03:26:19;;;;;;;8.65;6.93;;;8.10;99.90;;;;;;5072101;28;20054;-35
2023/05/31 03:28:45;;;;;;;9.98;7.05;;;8.10;99.90;;;;;;5072790;28;20403;-37
2023/05/31 03:31:11;;;;;;;12.02;7.53;;;8.10;99.90;;;;;;5073046;28;20083;-39
2023/05/31 03:33:36;;;;;;;15.65;8.13;;;8.20;99.90;;;;;;5073588;28;20079;-40
2023/05/31 03:36:03;;;;;;;14.95;9.20;;;8.20;99.90;;;;;;5073257;28;20036;-35
2023/05/31 03:38:29;;;;;;;17.17;9.38;;;8.20;99.90;;;;;;5060093;28;20496;-38
2023/05/31 03:40:55;;;;;;;12.70;7.75;;;8.20;99.90;;;;;;5064761;28;20491;-37
2023/05/31 03:43:21;;;;;;;15.02;8.60;;;8.30;99.90;;;;;;5067826;28;20049;-35
2023/05/31 03:45:46;;;;;;;14.45;8.38;;;8.30;99.90;;;;;;5076211;28;20377;-39
2023/05/31 03:48:12;;;;;;;13.88;9.05;;;8.40;99.90;;;;;;5077231;28;20067;-37
2023/05/31 03:50:41;;;;;;;14.38;8.73;;;8.40;99.90;;;;;;5069974;28;20048;-39
2023/05/31 03:53:07;;;;;;;16.35;8.13;;;8.60;99.90;;;;;;5076516;28;20044;-39
2023/05/31 03:55:32;;;;;;;14.70;8.40;;;9.00;99.90;;;;;;5076047;28;20052;-36
2023/05/31 03:57:58;;;;;;;15.95;7.70;;;9.40;99.90;;;;;;5076376;28;20503;-40
2023/05/31 04:00:24;;;;;;;11.98;7.95;;;9.90;99.90;;;;;;5073928;28;20130;-38
2023/05/31 04:02:50;;;;;;;12.27;8.00;;;10.50;99.90;;;;;;5069824;28;20082;-37
2023/05/31 04:05:16;;;;;;;13.85;7.93;;;11.10;99.90;;;;;;5074023;28;20458;-40
2023/05/31 04:07:41;;;;;;;14.55;6.93;;;11.50;99.90;;;;;;5073883;28;20052;-38
2023/05/31 04:10:08;;;;;;;12.65;7.45;;;12.10;99.90;;;;;;5076022;28;20047;-37
2023/05/31 04:12:33;;;;;;;12.70;7.82;;;12.50;99.90;;;;;;5075870;28;20384;-40
2023/05/31 04:14:59;;;;;;;10.70;7.43;;;12.90;99.90;;;;;;5075797;28;20050;-41
2023/05/31 04:17:25;;;;;;;7.93;6.90;;;13.30;99.90;;;;;;5076452;28;20567;-37
2023/05/31 04:19:51;;;;;;;9.35;7.07;;;13.70;99.90;;;;;;5076179;28;20048;-43
2023/05/31 04:22:16;;;;;;;8.30;6.82;;;14.00;99.90;;;;;;5074007;28;20052;-38
2023/05/31 04:24:42;;;;;;;10.57;7.38;;;14.50;99.90;;;;;;5075621;28;20055;-41
2023/05/31 04:27:08;;;;;;;14.63;8.00;;;14.90;99.90;;;;;;5075625;28;20044;-41
2023/05/31 04:29:33;;;;;;;16.70;8.32;;;14.90;99.90;;;;;;5074247;28;20056;-39
2023/05/31 04:31:59;;;;;;;10.50;7.15;;;15.10;99.90;;;;;;5075015;28;20054;-39
2023/05/31 04:34:26;;;;;;;12.57;7.15;;;15.40;99.90;;;;;;5075451;28;20127;-40
2023/05/31 04:36:52;;;;;;;8.50;6.82;;;16.00;99.90;;;;;;5069769;28;20052;-41
2023/05/31 04:39:21;;;;;;;9.75;7.60;;;16.20;99.90;;;;;;5056574;28;20048;-40
2023/05/31 04:41:47;;;;;;;11.07;7.38;;;16.40;99.90;;;;;;5068531;28;20048;-39
2023/05/31 04:44:13;;;;;;;9.65;7.32;;;17.00;99.90;;;;;;5066255;28;20056;-40
2023/05/31 04:46:40;;;;;;;13.52;7.97;;;17.40;99.90;;;;;;5075274;28;20514;-40
2023/05/31 04:49:07;;;;;;;12.65;8.27;;;17.80;99.90;;;;;;5072546;28;20179;-39
2023/05/31 04:51:32;;;;;;;11.77;8.10;;;18.30;99.90;;;;;;5070937;28;20051;-39
2023/05/31 04:53:59;;;;;;;10.10;7.40;;;18.80;99.90;;;;;;5074553;28;20142;-42
2023/05/31 04:56:25;;;;;;;11.23;8.13;;;19.30;99.90;;;;;;5075008;28;20914;-40
2023/05/31 04:58:51;;;;;;;9.35;7.28;;;19.80;99.90;;;;;;5073837;28;20051;-39
2023/05/31 05:01:17;;;;;;;10.93;7.28;;;20.30;99.90;;;;;;5074557;28;20059;-40
2023/05/31 05:03:44;;;;;;;9.93;7.55;;;21.00;99.90;;;;;;5075760;28;20056;-43
2023/05/31 05:06:18;;;;;;;12.18;7.22;;;21.70;99.90;;;;;;5075018;28;20040;-42
2023/05/31 05:08:45;;;;;;;11.30;7.05;;;22.40;99.90;;;;;;5075624;28;20044;-40
2023/05/31 05:11:11;;;;;;;12.02;7.15;;;22.60;99.90;;;;;;5074157;28;20054;-42
2023/05/31 05:13:37;;;;;;;12.48;7.40;;;23.20;99.90;;;;;;5073488;28;20051;-41
2023/05/31 05:16:03;;;;;;;10.40;6.63;;;23.70;99.90;;;;;;5073860;28;20075;-40
2023/05/31 05:18:29;;;;;;;12.75;7.30;;;24.20;99.90;;;;;;5074415;28;20519;-44
2023/05/31 05:20:56;;;;;;;9.73;7.03;;;24.20;99.90;;;;;;5073673;28;20044;-39
2023/05/31 05:23:22;;;;;;;11.18;6.85;;;24.50;99.90;;;;;;5074764;28;20554;-43
2023/05/31 05:25:48;;;;;;;8.95;6.63;;;24.80;99.90;;;;;;5072156;28;20075;-44
2023/05/31 05:28:14;;;;;;;11.32;6.85;;;25.20;99.90;;;;;;5074475;28;20138;-41
2023/05/31 05:30:40;;;;;;;9.05;6.78;;;25.30;99.80;;;;;;5074459;28;20051;-44
2023/05/31 05:33:06;;;;;;;12.45;7.95;;;25.50;99.60;;;;;;5074620;28;20101;-38
2023/05/31 05:35:32;;;;;;;10.07;6.72;;;25.60;98.80;;;;;;5072423;28;20503;-43
2023/05/31 05:37:59;;;;;;;8.98;6.70;;;25.90;98.40;;;;;;5060466;28;20049;-44
2023/05/31 05:40:25;;;;;;;9.68;6.50;;;26.20;98.90;;;;;;5060306;28;20051;-43
2023/05/31 05:42:53;;;;;;;11.27;6.18;;;26.80;97.90;;;;;;5067188;28;20092;-42
2023/05/31 05:45:18;;;;;;;11.07;7.32;;;26.50;96.60;;;;;;5071471;28;20422;-44
2023/05/31 05:47:45;;;;;;;12.10;6.65;;;26.20;97.00;;;;;;5074493;28;20071;-38
2023/05/31 05:50:12;;;;;;;10.35;6.38;;;26.70;97.70;;;;;;5066559;28;20086;-44
2023/05/31 05:52:38;;;;;;;13.20;7.30;;;26.60;97.70;;;;;;5073708;28;20047;-39
2023/05/31 05:55:04;;;;;;;9.25;6.63;;;27.20;97.60;;;;;;5073100;28;20467;-39
2023/05/31 05:57:30;;;;;;;10.05;7.07;;;27.20;96.30;;;;;;5073365;28;20040;-44
2023/05/31 05:59:57;;;;;;;13.57;7.60;;;27.50;96.60;;;;;;5073863;28;20524;-40
2023/05/31 06:02:22;;;;;;;11.50;6.70;;;27.20;95.60;;;;;;5074038;28;20330;-39
2023/05/31 06:04:49;;;;;;;8.85;6.75;;;27.80;96.30;;;;;;5073089;28;20084;-47
2023/05/31 06:07:16;;;;;;;8.27;6.57;;;27.90;96.00;;;;;;5074432;28;20044;-41
2023/05/31 06:09:41;;;;;;;12.00;7.75;;;28.20;94.30;;;;;;5074062;28;20121;-39
2023/05/31 06:12:08;;;;;;;10.27;7.40;;;27.90;93.90;;;;;;5074620;28;20118;-41
2023/05/31 06:14:33;;;;;;;10.75;7.28;;;27.90;95.00;;;;;;5073462;28;20364;-43
2023/05/31 06:16:59;;;;;;;11.55;7.57;;;28.30;95.40;;;;;;5073629;28;20040;-43
2023/05/31 06:19:25;;;;;;;10.63;7.15;;;27.80;93.90;;;;;;5074306;28;20040;-41
2023/05/31 06:21:51;;;;;;;10.30;6.55;;;28.60;94.80;;;;;;5071908;28;20100;-41
2023/05/31 06:24:17;;;;;;;11.57;6.82;;;28.00;94.00;;;;;;5071978;28;20609;-41
2023/05/31 06:26:43;;;;;;;10.73;8.02;;;28.50;93.60;;;;;;5073508;28;20399;-41
2023/05/31 06:29:09;;;;;;;13.70;7.63;;;28.50;93.50;;;;;;5072772;28;20051;-46
2023/05/31 06:31:35;;;;;;;11.30;7.70;;;28.50;94.80;;;;;;5072410;28;20119;-42
2023/05/31 06:34:02;;;;;;;14.48;8.63;;;28.10;93.20;;;;;;5072282;28;20048;-39
2023/05/31 06:36:29;;;;;;;11.88;7.97;;;27.30;93.80;;;;;;5068719;28;20158;-40
2023/05/31 06:38:54;;;;;;;14.30;7.80;;;27.00;94.80;;;;;;5061223;28;20083;-42
2023/05/31 06:41:20;;;;;;;9.38;7.72;;;27.00;94.60;;;;;;5073350;28;20495;-39
2023/05/31 06:43:46;;;;;;;11.80;7.90;;;26.90;95.70;;;;;;5063973;28;20333;-42
2023/05/31 06:46:12;;;;;;;12.45;7.75;;;27.20;95.10;;;;;;5073529;28;20055;-43
2023/05/31 06:48:38;;;;;;;12.55;7.07;;;27.30;95.20;;;;;;5073248;28;20063;-43
2023/05/31 06:51:04;;;;;;;9.77;7.40;;;27.90;94.50;;;;;;5065303;28;20556;-41
2023/05/31 06:53:30;;;;;;;22.02;8.52;;;28.40;94.70;;;;;;5072768;28;20048;-45
2023/05/31 06:55:56;;;;;;;13.05;7.65;;;28.70;94.20;;;;;;5072726;28;20562;-44
2023/05/31 06:58:21;;;;;;;11.18;7.40;;;27.20;94.20;;;;;;5072752;28;20086;-40
2023/05/31 07:00:47;;;;;;;10.25;6.72;;;27.70;94.60;;;;;;5072077;28;20059;-43
2023/05/31 07:03:12;;;;;;;13.82;7.05;;;28.20;94.60;;;;;;5073414;28;20809;-43
2023/05/31 07:05:42;;;;;;;11.02;6.82;;;28.80;92.90;;;;;;5072638;28;20051;-47
2023/05/31 07:08:07;;;;;;;9.55;6.47;;;28.50;93.10;;;;;;5072916;28;20082;-41
2023/05/31 07:10:33;;;;;;;11.13;7.50;;;29.10;92.90;;;;;;5075413;28;20052;-42
2023/05/31 07:12:59;;;;;;;10.68;6.18;;;28.90;92.60;;;;;;5077196;28;20051;-41
2023/05/31 07:15:25;;;;;;;9.35;6.57;;;28.70;93.30;;;;;;5077033;28;20159;-37
2023/05/31 07:17:51;;;;;;;8.98;6.63;;;27.90;93.50;;;;;;5077365;28;20055;-40
2023/05/31 07:20:16;;;;;;;11.75;7.05;;;27.80;94.30;;;;;;5077394;28;20075;-46
2023/05/31 07:22:42;;;;;;;12.45;7.22;;;27.30;94.80;;;;;;5076642;28;20055;-41
2023/05/31 07:25:08;;;;;;;9.25;6.30;;;26.10;95.10;;;;;;5076551;28;20044;-43
2023/05/31 07:27:34;;;;;;;9.35;6.38;;;25.90;95.60;;;;;;5076350;28;20036;-43
2023/05/31 07:29:59;;;;;;;11.68;7.30;;;25.30;96.60;;;;;;5076726;28;20129;-37
2023/05/31 07:32:25;;;;;;;10.23;6.20;;;25.20;96.50;;;;;;5075038;28;20551;-37
2023/05/31 07:34:51;;;;;;;10.82;6.50;;;25.10;96.50;;;;;;5076017;28;20106;-42
2023/05/31 07:37:16;;;;;;;10.45;6.32;;;24.90;97.20;;;;;;5065808;28;20051;-47
2023/05/31 07:39:44;;;;;;;15.13;7.88;;;24.70;97.40;;;;;;5067595;28;20423;-43
2023/05/31 07:42:12;;;;;;;12.18;7.95;;;24.60;97.50;;;;;;5074819;28;20062;-46
2023/05/31 07:44:38;;;;;;;10.57;7.10;;;24.50;97.50;;;;;;5074958;28;20105;-41
2023/05/31 07:47:04;;;;;;;10.43;7.10;;;24.10;98.40;;;;;;5074619;28;20052;-40
2023/05/31 07:49:30;;;;;;;12.02;7.70;;;23.20;99.20;;;;;;5076557;28;20040;-40
2023/05/31 07:51:55;;;;;;;12.07;7.57;;;22.90;99.80;;;;;;5075812;28;20477;-37
2023/05/31 07:54:21;;;;;;;9.93;6.63;;;22.60;99.90;;;;;;5076162;28;20052;-36
2023/05/31 07:56:47;;;;;;;9.32;7.18;;;22.80;99.90;;;;;;5076287;28;20068;-43
2023/05/31 07:59:13;;;;;;;11.50;7.95;;;22.90;99.90;;;;;;5076730;28;20159;-42
2023/05/31 08:01:40;;;;;;;13.75;7.72;;;22.80;99.90;;;;;;5074547;28;20078;-46
2023/05/31 08:04:07;;;;;;;10.30;6.97;;;23.00;99.90;;;;;;5094838;27;20064;-42
2023/05/31 08:06:33;;;;;;;11.95;7.45;;;23.00;99.90;;;;;;5074247;28;20044;-39
2023/05/31 08:09:00;;;;;;;10.95;7.57;;;23.00;99.90;;;;;;5073113;28;20075;-44
2023/05/31 08:11:27;;;;;;;10.40;7.07;;;22.70;99.90;;;;;;5075696;28;20486;-42
2023/05/31 08:13:53;;;;;;;11.30;7.85;;;23.00;99.90;;;;;;5075673;28;20040;-41
2023/05/31 08:16:18;;;;;;;12.07;7.22;;;22.70;99.90;;;;;;5075557;28;20444;-44
2023/05/31 08:18:45;;;;;;;9.70;6.93;;;22.30;99.90;;;;;;5076086;28;20671;-37
2023/05/31 08:21:11;;;;;;;11.57;7.22;;;22.20;99.90;;;;;;5074530;28;20551;-42
2023/05/31 08:23:36;;;;;;;12.23;6.90;;;22.40;99.90;;;;;;5073402;28;20043;-40
2023/05/31 08:26:02;;;;;;;12.13;6.95;;;22.50;99.90;;;;;;5073253;28;20047;-44
2023/05/31 08:28:29;;;;;;;12.10;7.25;;;22.50;99.90;;;;;;5075641;28;20066;-39
2023/05/31 08:30:55;;;;;;;9.32;6.82;;;22.30;99.90;;;;;;5074840;28;20036;-40
2023/05/31 08:33:21;;;;;;;10.15;6.68;;;22.50;99.90;;;;;;5075361;28;20469;-37
2023/05/31 08:35:47;;;;;;;10.80;6.25;;;22.80;99.90;;;;;;5074997;28;20404;-40
2023/05/31 08:38:13;;;;;;;13.65;8.30;;;22.90;99.90;;;;;;5057533;28;20109;-44
2023/05/31 08:40:39;;;;;;;13.50;7.10;;;22.40;99.90;;;;;;5072478;28;20059;-46
2023/05/31 08:43:15;;;;;;;10.43;6.50;;;22.50;99.90;;;;;;5065902;28;20509;-39
2023/05/31 08:45:42;;;;;;;12.90;7.28;;;22.70;99.90;;;;;;5062883;28;20036;-47
2023/05/31 08:48:19;;;;;;;11.68;7.43;;;22.80;99.90;;;;;;5069848;28;20044;-42
2023/05/31 08:50:46;;;;;;;10.70;7.07;;;22.70;99.90;;;;;;5065525;28;20060;-44
2023/05/31 08:53:15;;;;;;;10.57;6.68;;;22.80;99.90;;;;;;5075547;28;20144;-37
2023/05/31 08:55:44;;;;;;;15.38;7.30;;;22.90;99.90;;;;;;5073890;28;20127;-42
2023/05/31 08:58:10;;;;;;;13.23;5.75;;;23.00;99.90;;;;;;5074415;28;20054;-40
2023/05/31 09:00:36;;;;;;;8.75;6.10;;;22.80;99.90;;;;;;5070522;28;20318;-42
2023/05/31 09:03:05;;;;;;;6.55;5.75;;;23.00;99.90;;;;;;5070642;28;20051;-48
2023/05/31 09:05:31;;;;;;;8.60;5.90;;;23.00;99.90;;;;;;5067136;28;20037;-43
2023/05/31 09:07:59;;;;;;;10.85;5.38;;;22.70;99.90;;;;;;5068172;28;20067;-41
2023/05/31 09:10:25;;;;;;;10.02;6.28;;;22.70;99.90;;;;;;5067561;28;20479;-43
2023/05/31 09:12:50;;;;;;;8.10;5.38;;;22.60;99.90;;;;;;5064301;28;20036;-42
2023/05/31 09:15:17;;;;;;;8.85;5.55;;;22.80;99.90;;;;;;5074568;28;20145;-47
2023/05/31 09:17:44;;;;;;;10.63;5.68;;;21.90;99.90;;;;;;5074570;28;20063;-41
2023/05/31 09:20:10;;;;;;;11.85;6.18;;;21.80;99.90;;;;;;5073054;28;20040;-38
2023/05/31 09:22:36;;;;;;;11.18;6.13;;;21.90;99.90;;;;;;5062845;28;20063;-46
2023/05/31 09:25:02;;;;;;;9.57;5.43;;;21.90;99.90;;;;;;5066134;28;20041;-39
2023/05/31 09:27:36;;;;;;;9.95;6.00;;;22.00;99.90;;;;;;5071339;28;20046;-39
2023/05/31 09:30:14;;;;;;;9.60;5.95;;;21.90;99.90;;;;;;5074583;28;20043;-40
2023/05/31 09:32:40;;;;;;;9.00;6.13;;;22.20;99.90;;;;;;5063370;28;20086;-44
2023/05/31 09:35:17;;;;;;;10.68;6.78;;;21.90;99.90;;;;;;5097019;27;20141;-38
2023/05/31 09:37:49;;;;;;;9.77;6.10;;;21.60;99.90;;;;;;5062393;28;20056;-37
2023/05/31 09:40:22;;;;;;;;;;;22.00;99.90;;;;;;5073697;28;20052;-48
2023/05/31 09:42:49;;;;;;;12.03;6.77;;;22.00;99.90;;;;;;5070694;28;19925;-40
2023/05/31 09:45:15;;;;;;;9.40;6.53;;;21.60;99.90;;;;;;5073405;28;20044;-48
2023/05/31 09:47:41;;;;;;;10.98;6.55;;;21.40;99.90;;;;;;5073676;28;20080;-46
2023/05/31 09:50:17;;;;;;;10.18;6.90;;;21.60;99.90;;;;;;5066907;28;20156;-38
2023/05/31 09:52:45;;;;;;;10.27;6.03;;;21.50;99.90;;;;;;5073488;28;20039;-40
2023/05/31 09:55:12;;;;;;;9.80;6.35;;;21.80;99.90;;;;;;5073083;28;20128;-48
2023/05/31 09:57:43;;;;;;;9.13;5.97;;;22.00;99.90;;;;;;5073829;28;20039;-37
2023/05/31 10:00:17;;;;;;;11.70;6.55;;;22.40;99.90;;;;;;5072635;28;20449;-40
2023/05/31 10:02:51;;;;;;;14.68;5.97;;;21.90;99.90;;;;;;5073961;28;20047;-39
2023/05/31 10:05:18;;;;;;;11.05;6.18;;;21.60;99.90;;;;;;5071129;28;20086;-43
2023/05/31 10:07:49;;;;;;;13.70;6.88;;;21.30;99.90;;;;;;5071025;28;20051;-39
2023/05/31 10:10:19;;;;;;;15.32;6.30;;;21.30;99.90;;;;;;5073474;28;20055;-44
2023/05/31 10:12:57;;;;;;;10.80;5.25;;;21.50;99.90;;;;;;5071614;28;20086;-44
2023/05/31 10:15:24;;;;;;;10.98;6.13;;;21.70;99.90;;;;;;5067671;28;20534;-40
2023/05/31 10:17:58;;;;;;;10.80;5.88;;;21.70;99.90;;;;;;5096688;27;20048;-45
2023/05/31 10:20:28;;;;;;;13.57;6.50;;;21.80;99.90;;;;;;5068094;28;20039;-41
2023/05/31 10:22:57;;;;;;;10.43;6.03;;;22.00;99.90;;;;;;5071215;28;20488;-41
2023/05/31 10:25:31;;;;;;;16.20;6.55;;;21.70;99.90;;;;;;5072889;28;20872;-43
2023/05/31 10:28:01;;;;;;;14.20;6.05;;;21.50;99.90;;;;;;5070003;28;20098;-44
2023/05/31 10:30:31;;;;;;;14.27;6.65;;;21.40;99.90;;;;;;5058805;28;20079;-44
2023/05/31 10:33:13;;;;;;;11.13;6.13;;;21.40;99.90;;;;;;5063527;28;20044;-41
2023/05/31 10:35:39;;;;;;;11.98;6.70;;;21.20;99.90;;;;;;5062164;28;20602;-41
2023/05/31 10:38:06;;;;;;;11.10;6.47;;;21.50;99.90;;;;;;5064142;28;20326;-42
2023/05/31 10:40:59;;;;;;;13.38;6.85;;;21.50;99.90;;;;;;5058483;28;20055;-42
2023/05/31 10:43:35;;;;;;;9.77;6.10;;;21.50;99.90;;;;;;5062105;28;20124;-37
2023/05/31 10:46:04;;;;;;;12.52;6.63;;;21.50;99.90;;;;;;5073329;28;20040;-42
2023/05/31 10:49:00;;;;;;;12.70;6.20;;;21.50;99.90;;;;;;5073676;28;20044;-38
2023/05/31 10:51:46;;;;;;;11.40;6.07;;;21.60;99.90;;;;;;5067792;28;20872;-40
2023/05/31 10:54:22;;;;;;;15.40;7.70;;;21.70;99.90;;;;;;5072294;28;20103;-43
2023/05/31 10:56:54;;;;;;;11.35;7.03;;;21.50;99.90;;;;;;5070334;28;20032;-42
2023/05/31 10:59:21;;;;;;;16.55;6.90;;;21.50;99.90;;;;;;5072855;28;20151;-37
2023/05/31 11:01:47;;;;;;;15.23;6.90;;;21.70;99.90;;;;;;5072413;28;20044;-45
2023/05/31 11:04:24;;;;;;;12.35;6.65;;;21.80;99.90;;;;;;5072349;28;20093;-41
2023/05/31 11:06:54;;;;;;;12.23;7.50;;;22.00;99.90;;;;;;5071870;28;20086;-37
2023/05/31 11:09:21;;;;;;;10.68;7.28;;;21.60;99.90;;;;;;5072223;28;20047;-37
2023/05/31 11:11:50;;;;;;;11.93;7.20;;;21.40;99.90;;;;;;5071955;28;20064;-44
2023/05/31 11:14:15;;;;;;;11.30;7.50;;;21.10;99.90;;;;;;5068549;28;20871;-43
2023/05/31 11:16:47;;;;;;;12.55;7.88;;;20.90;99.90;;;;;;5074047;28;20051;-45
2023/05/31 11:19:17;;;;;;;13.40;7.65;;;20.70;99.90;;;;;;5071288;28;20063;-45
2023/05/31 11:21:57;;;;;;;11.98;7.80;;;20.60;99.90;;;;;;5073781;28;20442;-37
2023/05/31 11:24:36;;;;;;;14.45;8.15;;;20.50;99.90;;;;;;5072567;28;20040;-39
2023/05/31 11:27:02;;;;;;;13.25;8.63;;;20.70;99.90;;;;;;5072896;28;20040;-42
2023/05/31 11:29:52;;;;;;;12.52;8.70;;;20.80;99.90;;;;;;5073102;28;20044;-42
2023/05/31 11:32:22;;;;;;;13.13;7.70;;;21.00;99.90;;;;;;5072194;28;20402;-39
2023/05/31 11:35:00;;;;;;;11.73;8.45;;;21.20;99.90;;;;;;5072122;28;20067;-42
2023/05/31 11:37:35;;;;;;;10.95;8.65;;;21.00;99.90;;;;;;5062091;28;20048;-39
2023/05/31 11:40:08;;;;;;;14.23;8.90;;;21.10;99.90;;;;;;5054160;28;20055;-39
2023/05/31 11:42:38;;;;;;;10.57;7.82;;;21.20;99.90;;;;;;5069066;28;20036;-41
2023/05/31 11:45:08;;;;;;;16.05;8.30;;;21.10;99.90;;;;;;5067449;28;20067;-38
2023/05/31 11:47:57;;;;;;;16.50;9.10;;;20.70;99.90;;;;;;5072736;28;20079;-40
2023/05/31 11:50:24;;;;;;;16.45;8.93;;;20.50;99.90;;;;;;5069990;28;20044;-41
2023/05/31 11:52:54;;;;;;;15.13;9.35;;;20.30;99.90;;;;;;5072394;28;20061;-45
2023/05/31 11:55:20;;;;;;;12.30;7.78;;;20.40;99.90;;;;;;5056535;28;20106;-40
2023/05/31 11:57:54;;;;;;;11.77;8.60;;;20.60;99.90;;;;;;5062614;28;20040;-45
2023/05/31 12:00:22;;;;;;;11.68;9.13;;;20.80;99.90;;;;;;5075261;28;20044;-45
2023/05/31 12:02:53;;;;;;;16.45;9.50;;;20.80;99.90;;;;;;5070975;28;20090;-40
2023/05/31 12:05:19;;;;;;;13.88;8.20;;;21.00;99.90;;;;;;5073941;28;20051;-43
2023/05/31 12:07:46;;;;;;;12.45;8.75;;;21.10;99.90;;;;;;5075891;28;20032;-41
2023/05/31 12:10:12;;;;;;;12.30;8.38;;;21.10;99.90;;;;;;5073178;28;20052;-41
2023/05/31 12:12:40;;;;;;;19.17;10.00;;;21.10;99.90;;;;;;5077298;28;20059;-41
2023/05/31 12:15:07;;;;;;;15.10;8.20;;;21.30;99.90;;;;;;5077117;28;20044;-40
2023/05/31 12:17:33;;;;;;;9.70;7.68;;;21.10;99.90;;;;;;5075826;28;20050;-42
2023/05/31 12:19:59;;;;;;;19.83;8.07;;;20.90;99.90;;;;;;5076329;28;20123;-45
2023/05/31 12:22:26;;;;;;;15.48;8.48;;;20.80;99.90;;;;;;5074575;28;20166;-38
2023/05/31 12:24:54;;;;;;;13.73;8.55;;;20.60;99.90;;;;;;5075818;28;20052;-41
2023/05/31 12:27:24;;;;;;;14.43;8.20;;;20.70;99.90;;;;;;5075789;28;20114;-42
2023/05/31 12:29:50;;;;;;;13.30;8.02;;;20.50;99.90;;;;;;5076160;28;20044;-40
2023/05/31 12:32:20;;;;;;;12.68;8.85;;;20.30;99.90;;;;;;5074702;28;20044;-46
2023/05/31 12:34:47;;;;;;;11.07;8.07;;;20.20;99.90;;;;;;5074720;28;20391;-45
2023/05/31 12:37:13;;;;;;;12.30;8.27;;;20.30;99.90;;;;;;5069490;28;20397;-43
2023/05/31 12:39:39;;;;;;;15.32;9.27;;;20.50;99.90;;;;;;5073034;28;20055;-42
2023/05/31 12:42:06;;;;;;;12.88;8.68;;;20.50;99.90;;;;;;5074950;28;20422;-47
2023/05/31 12:44:32;;;;;;;12.07;8.20;;;20.10;99.90;;;;;;5074170;28;20058;-41
2023/05/31 12:47:00;;;;;;;11.45;8.38;;;20.10;99.90;;;;;;5075220;28;20047;-44